Terminal Aerodrome Forecast
Issued by NWS Cleveland, OH

Home | Current Version | Previous Version | Text Only | Print | Product List | Glossary On
Versions: 1 2 3 4 5 6 7 8 9 10 11 12 13 14 15 16 17 18 19 20 21 22 23 24 25 26 27 28 29 30 31 32 33 34 35 36 37 38 39 40 41 42 43 44 45 46 47 48
356
FTUS41 KCLE 161124
TAFMFD
TAF
KMFD 161124Z 1612/1712 06006KT 5SM BR OVC035
     FM161300 06006KT P6SM OVC035
     FM170000 04008KT 1 1/2SM -SN BR OVC008
     FM170500 03009KT 1 1/2SM -SN OVC003
     FM170900 36010KT 3SM -SN BR OVC007=

USA.gov is the U.S. government's official web portal to all federal, state and local government web resources and services.